sensor_id;sensor_type;location;lat;lon;timestamp;P1;durP1;ratioP1;P2;durP2;ratioP2
58926;SDS011;44712;52.530;9.760;2023-04-15T00:01:44;7.15;;;5.30;;
58926;SDS011;44712;52.530;9.760;2023-04-15T00:04:11;9.20;;;5.88;;
58926;SDS011;44712;52.530;9.760;2023-04-15T00:06:37;10.52;;;6.03;;
58926;SDS011;44712;52.530;9.760;2023-04-15T00:09:06;7.05;;;5.38;;
58926;SDS011;44712;52.530;9.760;2023-04-15T00:11:33;10.02;;;6.20;;
58926;SDS011;44712;52.530;9.760;2023-04-15T00:14:00;8.43;;;5.70;;
58926;SDS011;44712;52.530;9.760;2023-04-15T00:16:26;8.73;;;6.18;;
58926;SDS011;44712;52.530;9.760;2023-04-15T00:18:53;12.98;;;6.60;;
58926;SDS011;44712;52.530;9.760;2023-04-15T00:21:20;8.20;;;6.03;;
58926;SDS011;44712;52.530;9.760;2023-04-15T00:23:47;9.75;;;5.97;;
58926;SDS011;44712;52.530;9.760;2023-04-15T00:26:17;9.85;;;6.20;;
58926;SDS011;44712;52.530;9.760;2023-04-15T00:28:47;10.98;;;6.68;;
58926;SDS011;44712;52.530;9.760;2023-04-15T00:31:14;9.63;;;6.30;;
58926;SDS011;44712;52.530;9.760;2023-04-15T00:33:40;11.40;;;7.32;;
58926;SDS011;44712;52.530;9.760;2023-04-15T00:36:07;11.07;;;6.97;;
58926;SDS011;44712;52.530;9.760;2023-04-15T00:38:36;12.45;;;7.53;;
58926;SDS011;44712;52.530;9.760;2023-04-15T00:41:03;19.45;;;12.05;;
58926;SDS011;44712;52.530;9.760;2023-04-15T00:43:30;20.05;;;13.50;;
58926;SDS011;44712;52.530;9.760;2023-04-15T00:45:57;21.65;;;14.02;;
58926;SDS011;44712;52.530;9.760;2023-04-15T00:48:24;19.38;;;11.50;;
58926;SDS011;44712;52.530;9.760;2023-04-15T00:50:54;15.25;;;9.65;;
58926;SDS011;44712;52.530;9.760;2023-04-15T00:53:23;16.02;;;9.07;;
58926;SDS011;44712;52.530;9.760;2023-04-15T00:55:50;13.10;;;8.35;;
58926;SDS011;44712;52.530;9.760;2023-04-15T00:58:17;12.88;;;7.97;;
58926;SDS011;44712;52.530;9.760;2023-04-15T01:00:43;14.52;;;8.23;;
58926;SDS011;44712;52.530;9.760;2023-04-15T01:03:11;12.85;;;8.73;;
58926;SDS011;44712;52.530;9.760;2023-04-15T01:05:39;15.30;;;8.57;;
58926;SDS011;44712;52.530;9.760;2023-04-15T01:08:07;16.50;;;8.90;;
58926;SDS011;44712;52.530;9.760;2023-04-15T01:10:34;16.80;;;9.82;;
58926;SDS011;44712;52.530;9.760;2023-04-15T01:13:02;18.42;;;9.10;;
58926;SDS011;44712;52.530;9.760;2023-04-15T01:15:30;14.32;;;8.73;;
58926;SDS011;44712;52.530;9.760;2023-04-15T01:17:57;14.25;;;8.70;;
58926;SDS011;44712;52.530;9.760;2023-04-15T01:20:24;13.77;;;8.05;;
58926;SDS011;44712;52.530;9.760;2023-04-15T01:22:54;13.98;;;8.82;;
58926;SDS011;44712;52.530;9.760;2023-04-15T01:25:31;13.73;;;8.77;;
58926;SDS011;44712;52.530;9.760;2023-04-15T01:28:00;14.18;;;8.85;;
58926;SDS011;44712;52.530;9.760;2023-04-15T01:30:27;16.35;;;8.85;;
58926;SDS011;44712;52.530;9.760;2023-04-15T01:32:54;13.57;;;8.40;;
58926;SDS011;44712;52.530;9.760;2023-04-15T01:35:39;17.55;;;9.90;;
58926;SDS011;44712;52.530;9.760;2023-04-15T01:38:07;17.15;;;9.80;;
58926;SDS011;44712;52.530;9.760;2023-04-15T01:40:36;17.88;;;9.75;;
58926;SDS011;44712;52.530;9.760;2023-04-15T01:43:05;14.55;;;8.80;;
58926;SDS011;44712;52.530;9.760;2023-04-15T01:45:34;15.65;;;9.30;;
58926;SDS011;44712;52.530;9.760;2023-04-15T01:48:04;20.17;;;10.02;;
58926;SDS011;44712;52.530;9.760;2023-04-15T01:50:32;14.15;;;8.27;;
58926;SDS011;44712;52.530;9.760;2023-04-15T01:53:00;17.13;;;9.73;;
58926;SDS011;44712;52.530;9.760;2023-04-15T01:55:28;15.23;;;8.90;;
58926;SDS011;44712;52.530;9.760;2023-04-15T01:57:56;18.05;;;9.57;;
58926;SDS011;44712;52.530;9.760;2023-04-15T02:00:24;15.10;;;9.50;;
58926;SDS011;44712;52.530;9.760;2023-04-15T02:02:52;16.58;;;9.10;;
58926;SDS011;44712;52.530;9.760;2023-04-15T02:05:20;20.30;;;10.40;;
58926;SDS011;44712;52.530;9.760;2023-04-15T02:07:49;18.23;;;9.35;;
58926;SDS011;44712;52.530;9.760;2023-04-15T02:10:17;18.65;;;10.27;;
58926;SDS011;44712;52.530;9.760;2023-04-15T02:12:45;20.42;;;10.82;;
58926;SDS011;44712;52.530;9.760;2023-04-15T02:15:14;17.73;;;9.98;;
58926;SDS011;44712;52.530;9.760;2023-04-15T02:17:42;20.27;;;10.63;;
58926;SDS011;44712;52.530;9.760;2023-04-15T02:20:15;21.60;;;11.73;;
58926;SDS011;44712;52.530;9.760;2023-04-15T02:22:44;20.02;;;10.90;;
58926;SDS011;44712;52.530;9.760;2023-04-15T02:25:15;22.58;;;12.80;;
58926;SDS011;44712;52.530;9.760;2023-04-15T02:27:43;20.08;;;11.00;;
58926;SDS011;44712;52.530;9.760;2023-04-15T02:30:11;24.17;;;12.27;;
58926;SDS011;44712;52.530;9.760;2023-04-15T02:32:40;24.08;;;11.98;;
58926;SDS011;44712;52.530;9.760;2023-04-15T02:35:12;22.45;;;12.45;;
58926;SDS011;44712;52.530;9.760;2023-04-15T02:37:39;21.15;;;11.70;;
58926;SDS011;44712;52.530;9.760;2023-04-15T02:40:10;25.08;;;12.65;;
58926;SDS011;44712;52.530;9.760;2023-04-15T02:42:40;20.75;;;12.27;;
58926;SDS011;44712;52.530;9.760;2023-04-15T02:45:11;22.80;;;13.07;;
58926;SDS011;44712;52.530;9.760;2023-04-15T02:47:41;24.92;;;13.32;;
58926;SDS011;44712;52.530;9.760;2023-04-15T02:50:10;22.65;;;12.88;;
58926;SDS011;44712;52.530;9.760;2023-04-15T02:52:41;25.10;;;13.63;;
58926;SDS011;44712;52.530;9.760;2023-04-15T02:55:10;20.15;;;12.02;;
58926;SDS011;44712;52.530;9.760;2023-04-15T02:57:38;22.55;;;12.57;;
58926;SDS011;44712;52.530;9.760;2023-04-15T03:00:09;26.95;;;14.38;;
58926;SDS011;44712;52.530;9.760;2023-04-15T03:02:45;25.80;;;13.25;;
58926;SDS011;44712;52.530;9.760;2023-04-15T03:05:14;28.00;;;13.55;;
58926;SDS011;44712;52.530;9.760;2023-04-15T03:07:47;24.73;;;13.93;;
58926;SDS011;44712;52.530;9.760;2023-04-15T03:10:17;24.95;;;13.30;;
58926;SDS011;44712;52.530;9.760;2023-04-15T03:12:46;30.85;;;14.48;;
58926;SDS011;44712;52.530;9.760;2023-04-15T03:15:20;27.10;;;14.18;;
58926;SDS011;44712;52.530;9.760;2023-04-15T03:20:19;25.00;;;14.35;;
58926;SDS011;44712;52.530;9.760;2023-04-15T03:22:48;26.58;;;15.20;;
58926;SDS011;44712;52.530;9.760;2023-04-15T03:25:18;32.92;;;18.30;;
58926;SDS011;44712;52.530;9.760;2023-04-15T03:27:46;28.75;;;16.35;;
58926;SDS011;44712;52.530;9.760;2023-04-15T03:30:17;29.60;;;15.80;;
58926;SDS011;44712;52.530;9.760;2023-04-15T03:32:46;29.85;;;17.17;;
58926;SDS011;44712;52.530;9.760;2023-04-15T03:35:14;28.90;;;15.35;;
58926;SDS011;44712;52.530;9.760;2023-04-15T03:37:45;27.40;;;15.55;;
58926;SDS011;44712;52.530;9.760;2023-04-15T03:40:15;31.55;;;16.67;;
58926;SDS011;44712;52.530;9.760;2023-04-15T03:42:43;35.25;;;17.33;;
58926;SDS011;44712;52.530;9.760;2023-04-15T03:45:11;29.92;;;16.17;;
58926;SDS011;44712;52.530;9.760;2023-04-15T03:47:39;34.72;;;17.90;;
58926;SDS011;44712;52.530;9.760;2023-04-15T03:50:07;29.83;;;17.27;;
58926;SDS011;44712;52.530;9.760;2023-04-15T03:52:35;31.55;;;16.85;;
58926;SDS011;44712;52.530;9.760;2023-04-15T03:55:04;29.50;;;16.80;;
58926;SDS011;44712;52.530;9.760;2023-04-15T03:57:34;30.58;;;16.48;;
58926;SDS011;44712;52.530;9.760;2023-04-15T04:00:04;26.80;;;15.23;;
58926;SDS011;44712;52.530;9.760;2023-04-15T04:02:38;31.45;;;15.35;;
58926;SDS011;44712;52.530;9.760;2023-04-15T04:05:06;27.10;;;14.45;;
58926;SDS011;44712;52.530;9.760;2023-04-15T04:07:35;29.80;;;14.88;;
58926;SDS011;44712;52.530;9.760;2023-04-15T04:10:03;33.78;;;17.45;;
58926;SDS011;44712;52.530;9.760;2023-04-15T04:12:31;29.38;;;15.98;;
58926;SDS011;44712;52.530;9.760;2023-04-15T04:14:59;32.97;;;17.75;;
58926;SDS011;44712;52.530;9.760;2023-04-15T04:17:27;24.00;;;15.38;;
58926;SDS011;44712;52.530;9.760;2023-04-15T04:19:55;32.83;;;16.77;;
58926;SDS011;44712;52.530;9.760;2023-04-15T04:22:23;33.70;;;18.15;;
58926;SDS011;44712;52.530;9.760;2023-04-15T04:24:51;39.25;;;20.08;;
58926;SDS011;44712;52.530;9.760;2023-04-15T04:27:19;35.85;;;17.63;;
58926;SDS011;44712;52.530;9.760;2023-04-15T04:29:48;34.67;;;17.65;;
58926;SDS011;44712;52.530;9.760;2023-04-15T04:32:16;37.22;;;18.15;;
58926;SDS011;44712;52.530;9.760;2023-04-15T04:34:44;33.58;;;17.10;;
58926;SDS011;44712;52.530;9.760;2023-04-15T04:37:12;29.10;;;15.27;;
58926;SDS011;44712;52.530;9.760;2023-04-15T04:39:41;36.30;;;17.58;;
58926;SDS011;44712;52.530;9.760;2023-04-15T04:42:10;31.55;;;16.25;;
58926;SDS011;44712;52.530;9.760;2023-04-15T04:44:39;29.25;;;15.88;;
58926;SDS011;44712;52.530;9.760;2023-04-15T04:47:09;31.77;;;16.15;;
58926;SDS011;44712;52.530;9.760;2023-04-15T04:49:37;33.28;;;16.48;;
58926;SDS011;44712;52.530;9.760;2023-04-15T04:52:05;34.35;;;16.83;;
58926;SDS011;44712;52.530;9.760;2023-04-15T04:54:33;29.83;;;16.08;;
58926;SDS011;44712;52.530;9.760;2023-04-15T04:57:03;33.22;;;17.42;;
58926;SDS011;44712;52.530;9.760;2023-04-15T04:59:31;30.60;;;16.67;;
58926;SDS011;44712;52.530;9.760;2023-04-15T05:01:59;37.03;;;18.42;;
58926;SDS011;44712;52.530;9.760;2023-04-15T05:04:27;30.70;;;16.27;;
58926;SDS011;44712;52.530;9.760;2023-04-15T05:06:54;27.88;;;16.13;;
58926;SDS011;44712;52.530;9.760;2023-04-15T05:09:23;28.65;;;14.68;;
58926;SDS011;44712;52.530;9.760;2023-04-15T05:11:51;28.20;;;15.07;;
58926;SDS011;44712;52.530;9.760;2023-04-15T05:14:18;26.13;;;15.07;;
58926;SDS011;44712;52.530;9.760;2023-04-15T05:16:49;29.15;;;15.38;;
58926;SDS011;44712;52.530;9.760;2023-04-15T05:19:17;27.45;;;14.43;;
58926;SDS011;44712;52.530;9.760;2023-04-15T05:21:45;27.50;;;14.63;;
58926;SDS011;44712;52.530;9.760;2023-04-15T05:24:13;28.00;;;14.50;;
58926;SDS011;44712;52.530;9.760;2023-04-15T05:26:41;26.65;;;13.93;;
58926;SDS011;44712;52.530;9.760;2023-04-15T05:29:09;29.20;;;15.15;;
58926;SDS011;44712;52.530;9.760;2023-04-15T05:31:37;25.40;;;12.55;;
58926;SDS011;44712;52.530;9.760;2023-04-15T05:34:05;23.75;;;12.57;;
58926;SDS011;44712;52.530;9.760;2023-04-15T05:36:33;24.67;;;13.32;;
58926;SDS011;44712;52.530;9.760;2023-04-15T05:39:01;24.40;;;13.68;;
58926;SDS011;44712;52.530;9.760;2023-04-15T05:41:29;27.17;;;15.00;;
58926;SDS011;44712;52.530;9.760;2023-04-15T05:43:58;26.92;;;14.57;;
58926;SDS011;44712;52.530;9.760;2023-04-15T05:46:26;28.15;;;15.60;;
58926;SDS011;44712;52.530;9.760;2023-04-15T05:48:54;25.40;;;14.55;;
58926;SDS011;44712;52.530;9.760;2023-04-15T05:51:23;27.95;;;15.75;;
58926;SDS011;44712;52.530;9.760;2023-04-15T05:53:51;27.63;;;16.08;;
58926;SDS011;44712;52.530;9.760;2023-04-15T05:56:19;27.90;;;16.08;;
58926;SDS011;44712;52.530;9.760;2023-04-15T05:58:47;24.20;;;14.40;;
58926;SDS011;44712;52.530;9.760;2023-04-15T06:01:15;22.77;;;12.07;;
58926;SDS011;44712;52.530;9.760;2023-04-15T06:03:43;22.77;;;12.50;;
58926;SDS011;44712;52.530;9.760;2023-04-15T06:06:11;19.63;;;11.57;;
58926;SDS011;44712;52.530;9.760;2023-04-15T06:08:40;20.80;;;11.85;;
58926;SDS011;44712;52.530;9.760;2023-04-15T06:11:07;20.00;;;11.48;;
58926;SDS011;44712;52.530;9.760;2023-04-15T06:13:35;22.48;;;11.75;;
58926;SDS011;44712;52.530;9.760;2023-04-15T06:16:03;19.92;;;10.88;;
58926;SDS011;44712;52.530;9.760;2023-04-15T06:18:31;18.75;;;10.20;;
58926;SDS011;44712;52.530;9.760;2023-04-15T06:20:59;18.15;;;10.00;;
58926;SDS011;44712;52.530;9.760;2023-04-15T06:23:27;14.70;;;8.13;;
58926;SDS011;44712;52.530;9.760;2023-04-15T06:25:55;17.02;;;8.93;;
58926;SDS011;44712;52.530;9.760;2023-04-15T06:28:23;15.25;;;8.30;;
58926;SDS011;44712;52.530;9.760;2023-04-15T06:30:51;18.17;;;9.80;;
58926;SDS011;44712;52.530;9.760;2023-04-15T06:33:20;16.10;;;8.82;;
58926;SDS011;44712;52.530;9.760;2023-04-15T06:35:47;14.60;;;8.75;;
58926;SDS011;44712;52.530;9.760;2023-04-15T06:38:16;16.27;;;8.88;;
58926;SDS011;44712;52.530;9.760;2023-04-15T06:40:44;16.67;;;9.48;;
58926;SDS011;44712;52.530;9.760;2023-04-15T06:43:12;15.50;;;9.60;;
58926;SDS011;44712;52.530;9.760;2023-04-15T06:45:40;17.33;;;9.68;;
58926;SDS011;44712;52.530;9.760;2023-04-15T06:48:10;20.40;;;10.80;;
58926;SDS011;44712;52.530;9.760;2023-04-15T06:50:38;18.15;;;10.73;;
58926;SDS011;44712;52.530;9.760;2023-04-15T06:53:06;16.58;;;9.85;;
58926;SDS011;44712;52.530;9.760;2023-04-15T06:55:34;13.98;;;8.02;;
58926;SDS011;44712;52.530;9.760;2023-04-15T06:58:03;13.75;;;8.20;;
58926;SDS011;44712;52.530;9.760;2023-04-15T07:00:31;12.30;;;7.43;;
58926;SDS011;44712;52.530;9.760;2023-04-15T07:03:00;12.57;;;6.18;;
58926;SDS011;44712;52.530;9.760;2023-04-15T07:05:30;13.32;;;7.25;;
58926;SDS011;44712;52.530;9.760;2023-04-15T07:07:59;11.48;;;7.05;;
58926;SDS011;44712;52.530;9.760;2023-04-15T07:10:27;12.20;;;6.78;;
58926;SDS011;44712;52.530;9.760;2023-04-15T07:12:55;10.25;;;5.57;;
58926;SDS011;44712;52.530;9.760;2023-04-15T07:15:23;11.63;;;6.30;;
58926;SDS011;44712;52.530;9.760;2023-04-15T07:17:51;9.68;;;6.07;;
58926;SDS011;44712;52.530;9.760;2023-04-15T07:20:20;9.32;;;5.72;;
58926;SDS011;44712;52.530;9.760;2023-04-15T07:22:48;11.27;;;6.40;;
58926;SDS011;44712;52.530;9.760;2023-04-15T07:25:16;10.70;;;5.88;;
58926;SDS011;44712;52.530;9.760;2023-04-15T07:27:44;11.30;;;6.38;;
58926;SDS011;44712;52.530;9.760;2023-04-15T07:30:13;9.45;;;5.30;;
58926;SDS011;44712;52.530;9.760;2023-04-15T07:32:42;9.52;;;5.72;;
58926;SDS011;44712;52.530;9.760;2023-04-15T07:35:10;8.73;;;5.43;;
58926;SDS011;44712;52.530;9.760;2023-04-15T07:37:38;9.57;;;5.78;;
58926;SDS011;44712;52.530;9.760;2023-04-15T07:40:06;7.70;;;4.97;;
58926;SDS011;44712;52.530;9.760;2023-04-15T07:42:35;10.45;;;5.68;;
58926;SDS011;44712;52.530;9.760;2023-04-15T07:45:06;8.07;;;5.03;;
58926;SDS011;44712;52.530;9.760;2023-04-15T07:47:36;7.50;;;5.18;;
58926;SDS011;44712;52.530;9.760;2023-04-15T07:50:06;7.20;;;4.80;;
58926;SDS011;44712;52.530;9.760;2023-04-15T07:52:35;7.28;;;4.65;;
58926;SDS011;44712;52.530;9.760;2023-04-15T07:55:06;8.07;;;5.00;;
58926;SDS011;44712;52.530;9.760;2023-04-15T07:57:37;6.93;;;4.13;;
58926;SDS011;44712;52.530;9.760;2023-04-15T08:00:05;7.75;;;4.45;;
58926;SDS011;44712;52.530;9.760;2023-04-15T08:02:41;7.00;;;4.53;;
58926;SDS011;44712;52.530;9.760;2023-04-15T08:05:12;7.60;;;4.90;;
58926;SDS011;44712;52.530;9.760;2023-04-15T08:07:40;7.45;;;4.72;;
58926;SDS011;44712;52.530;9.760;2023-04-15T08:10:09;6.38;;;4.00;;
58926;SDS011;44712;52.530;9.760;2023-04-15T08:12:37;6.57;;;4.38;;
58926;SDS011;44712;52.530;9.760;2023-04-15T08:15:05;7.57;;;3.80;;
58926;SDS011;44712;52.530;9.760;2023-04-15T08:17:34;6.20;;;3.50;;
58926;SDS011;44712;52.530;9.760;2023-04-15T08:20:03;5.57;;;3.83;;
58926;SDS011;44712;52.530;9.760;2023-04-15T08:22:32;5.07;;;3.75;;
58926;SDS011;44712;52.530;9.760;2023-04-15T08:25:01;6.65;;;3.72;;
58926;SDS011;44712;52.530;9.760;2023-04-15T08:27:28;5.38;;;3.40;;
58926;SDS011;44712;52.530;9.760;2023-04-15T08:29:58;5.60;;;3.58;;
58926;SDS011;44712;52.530;9.760;2023-04-15T08:32:26;6.65;;;3.80;;
58926;SDS011;44712;52.530;9.760;2023-04-15T08:34:54;5.90;;;3.45;;
58926;SDS011;44712;52.530;9.760;2023-04-15T08:37:22;5.22;;;3.05;;
58926;SDS011;44712;52.530;9.760;2023-04-15T08:39:51;5.72;;;3.47;;
58926;SDS011;44712;52.530;9.760;2023-04-15T08:42:22;6.18;;;3.78;;
58926;SDS011;44712;52.530;9.760;2023-04-15T08:44:58;4.70;;;3.53;;
58926;SDS011;44712;52.530;9.760;2023-04-15T08:47:29;5.20;;;3.40;;
58926;SDS011;44712;52.530;9.760;2023-04-15T08:49:58;6.35;;;3.92;;
58926;SDS011;44712;52.530;9.760;2023-04-15T08:52:30;6.15;;;4.10;;
58926;SDS011;44712;52.530;9.760;2023-04-15T08:54:58;7.43;;;4.38;;
58926;SDS011;44712;52.530;9.760;2023-04-15T08:57:29;7.45;;;4.40;;
58926;SDS011;44712;52.530;9.760;2023-04-15T08:59:58;7.07;;;4.13;;
58926;SDS011;44712;52.530;9.760;2023-04-15T09:02:32;7.45;;;4.85;;
58926;SDS011;44712;52.530;9.760;2023-04-15T09:05:01;7.18;;;4.53;;
58926;SDS011;44712;52.530;9.760;2023-04-15T09:07:32;8.10;;;4.70;;
58926;SDS011;44712;52.530;9.760;2023-04-15T09:10:02;7.10;;;4.57;;
58926;SDS011;44712;52.530;9.760;2023-04-15T09:12:35;8.55;;;6.03;;
58926;SDS011;44712;52.530;9.760;2023-04-15T09:15:04;11.98;;;5.88;;
58926;SDS011;44712;52.530;9.760;2023-04-15T09:17:32;9.90;;;6.20;;
58926;SDS011;44712;52.530;9.760;2023-04-15T09:20:07;11.25;;;6.30;;
58926;SDS011;44712;52.530;9.760;2023-04-15T09:22:44;11.05;;;6.20;;
58926;SDS011;44712;52.530;9.760;2023-04-15T09:27:51;12.02;;;6.80;;
58926;SDS011;44712;52.530;9.760;2023-04-15T09:30:26;12.63;;;7.20;;
58926;SDS011;44712;52.530;9.760;2023-04-15T09:35:25;12.40;;;7.32;;
58926;SDS011;44712;52.530;9.760;2023-04-15T09:38:01;14.18;;;8.00;;
58926;SDS011;44712;52.530;9.760;2023-04-15T09:43:03;15.90;;;8.23;;
58926;SDS011;44712;52.530;9.760;2023-04-15T09:45:32;14.35;;;8.27;;
58926;SDS011;44712;52.530;9.760;2023-04-15T09:48:15;18.98;;;9.95;;
58926;SDS011;44712;52.530;9.760;2023-04-15T09:50:45;18.08;;;10.65;;
58926;SDS011;44712;52.530;9.760;2023-04-15T09:53:21;16.98;;;9.82;;
58926;SDS011;44712;52.530;9.760;2023-04-15T09:55:51;17.45;;;10.30;;
58926;SDS011;44712;52.530;9.760;2023-04-15T09:58:26;20.00;;;10.40;;
58926;SDS011;44712;52.530;9.760;2023-04-15T10:00:56;18.85;;;10.93;;
58926;SDS011;44712;52.530;9.760;2023-04-15T10:03:30;22.05;;;11.80;;
58926;SDS011;44712;52.530;9.760;2023-04-15T10:06:01;25.92;;;12.18;;
58926;SDS011;44712;52.530;9.760;2023-04-15T10:08:31;23.90;;;12.18;;
58926;SDS011;44712;52.530;9.760;2023-04-15T10:11:01;22.73;;;12.35;;
58926;SDS011;44712;52.530;9.760;2023-04-15T10:13:30;19.55;;;12.02;;
58926;SDS011;44712;52.530;9.760;2023-04-15T10:16:11;21.90;;;12.32;;
58926;SDS011;44712;52.530;9.760;2023-04-15T10:18:42;28.83;;;14.00;;
58926;SDS011;44712;52.530;9.760;2023-04-15T10:21:11;22.48;;;13.15;;
58926;SDS011;44712;52.530;9.760;2023-04-15T10:23:41;26.35;;;14.10;;
58926;SDS011;44712;52.530;9.760;2023-04-15T10:26:09;28.17;;;14.25;;
58926;SDS011;44712;52.530;9.760;2023-04-15T10:28:39;26.35;;;14.90;;
58926;SDS011;44712;52.530;9.760;2023-04-15T10:31:10;28.08;;;14.38;;
58926;SDS011;44712;52.530;9.760;2023-04-15T10:33:42;31.67;;;16.58;;
58926;SDS011;44712;52.530;9.760;2023-04-15T10:36:11;28.85;;;14.88;;
58926;SDS011;44712;52.530;9.760;2023-04-15T10:38:43;30.33;;;16.05;;
58926;SDS011;44712;52.530;9.760;2023-04-15T10:41:23;29.60;;;15.80;;
58926;SDS011;44712;52.530;9.760;2023-04-15T10:44:00;35.05;;;17.33;;
58926;SDS011;44712;52.530;9.760;2023-04-15T10:49:09;40.70;;;18.95;;
58926;SDS011;44712;52.530;9.760;2023-04-15T10:51:39;35.15;;;18.30;;
58926;SDS011;44712;52.530;9.760;2023-04-15T10:54:12;37.10;;;18.30;;
58926;SDS011;44712;52.530;9.760;2023-04-15T10:56:43;38.95;;;20.65;;
58926;SDS011;44712;52.530;9.760;2023-04-15T10:59:11;30.77;;;16.83;;
58926;SDS011;44712;52.530;9.760;2023-04-15T11:01:52;41.80;;;19.45;;
58926;SDS011;44712;52.530;9.760;2023-04-15T11:10:02;44.75;;;20.25;;
58926;SDS011;44712;52.530;9.760;2023-04-15T11:13:01;36.78;;;19.15;;
58926;SDS011;44712;52.530;9.760;2023-04-15T11:15:32;42.78;;;19.83;;
58926;SDS011;44712;52.530;9.760;2023-04-15T11:20:49;41.13;;;19.95;;
58926;SDS011;44712;52.530;9.760;2023-04-15T11:23:29;41.10;;;22.52;;
58926;SDS011;44712;52.530;9.760;2023-04-15T11:26:10;40.33;;;20.40;;
58926;SDS011;44712;52.530;9.760;2023-04-15T11:28:42;41.60;;;20.90;;
58926;SDS011;44712;52.530;9.760;2023-04-15T11:31:13;35.72;;;18.80;;
58926;SDS011;44712;52.530;9.760;2023-04-15T11:36:25;44.72;;;23.83;;
58926;SDS011;44712;52.530;9.760;2023-04-15T11:38:56;44.72;;;23.13;;
58926;SDS011;44712;52.530;9.760;2023-04-15T11:41:25;43.58;;;22.25;;
58926;SDS011;44712;52.530;9.760;2023-04-15T11:43:55;48.28;;;22.52;;
58926;SDS011;44712;52.530;9.760;2023-04-15T11:46:27;49.10;;;23.45;;
58926;SDS011;44712;52.530;9.760;2023-04-15T11:48:58;45.17;;;22.25;;
58926;SDS011;44712;52.530;9.760;2023-04-15T11:51:30;45.58;;;23.25;;
58926;SDS011;44712;52.530;9.760;2023-04-15T11:53:59;50.20;;;23.75;;
58926;SDS011;44712;52.530;9.760;2023-04-15T11:56:27;45.75;;;23.02;;
58926;SDS011;44712;52.530;9.760;2023-04-15T11:58:55;48.53;;;25.52;;
58926;SDS011;44712;52.530;9.760;2023-04-15T12:01:31;51.15;;;25.17;;
58926;SDS011;44712;52.530;9.760;2023-04-15T12:04:01;50.33;;;23.20;;
58926;SDS011;44712;52.530;9.760;2023-04-15T12:06:30;47.33;;;24.98;;
58926;SDS011;44712;52.530;9.760;2023-04-15T12:09:02;50.85;;;25.38;;
58926;SDS011;44712;52.530;9.760;2023-04-15T12:11:39;57.22;;;28.05;;
58926;SDS011;44712;52.530;9.760;2023-04-15T12:14:21;51.83;;;25.08;;
58926;SDS011;44712;52.530;9.760;2023-04-15T12:16:50;47.50;;;25.30;;
58926;SDS011;44712;52.530;9.760;2023-04-15T12:19:30;52.58;;;26.40;;
58926;SDS011;44712;52.530;9.760;2023-04-15T12:22:05;52.90;;;26.15;;
58926;SDS011;44712;52.530;9.760;2023-04-15T12:24:37;50.45;;;25.98;;
58926;SDS011;44712;52.530;9.760;2023-04-15T12:27:05;43.35;;;24.27;;
58926;SDS011;44712;52.530;9.760;2023-04-15T12:29:35;53.92;;;27.35;;
58926;SDS011;44712;52.530;9.760;2023-04-15T12:32:05;48.92;;;24.98;;
58926;SDS011;44712;52.530;9.760;2023-04-15T12:37:02;44.20;;;25.33;;
58926;SDS011;44712;52.530;9.760;2023-04-15T12:39:31;46.08;;;23.75;;
58926;SDS011;44712;52.530;9.760;2023-04-15T12:42:05;43.05;;;24.40;;
58926;SDS011;44712;52.530;9.760;2023-04-15T12:44:32;43.10;;;24.33;;
58926;SDS011;44712;52.530;9.760;2023-04-15T12:47:01;44.58;;;24.73;;
58926;SDS011;44712;52.530;9.760;2023-04-15T12:49:29;43.10;;;23.42;;
58926;SDS011;44712;52.530;9.760;2023-04-15T12:51:59;42.22;;;23.67;;
58926;SDS011;44712;52.530;9.760;2023-04-15T12:54:27;42.58;;;23.05;;
58926;SDS011;44712;52.530;9.760;2023-04-15T12:56:54;42.78;;;22.90;;
58926;SDS011;44712;52.530;9.760;2023-04-15T12:59:23;42.90;;;24.27;;
58926;SDS011;44712;52.530;9.760;2023-04-15T13:01:50;43.13;;;24.02;;
58926;SDS011;44712;52.530;9.760;2023-04-15T13:04:18;43.10;;;22.65;;
58926;SDS011;44712;52.530;9.760;2023-04-15T13:06:46;41.38;;;22.33;;
58926;SDS011;44712;52.530;9.760;2023-04-15T13:09:13;39.65;;;22.40;;
58926;SDS011;44712;52.530;9.760;2023-04-15T13:11:40;36.75;;;21.55;;
58926;SDS011;44712;52.530;9.760;2023-04-15T13:14:07;39.85;;;22.58;;
58926;SDS011;44712;52.530;9.760;2023-04-15T13:16:35;33.33;;;19.90;;
58926;SDS011;44712;52.530;9.760;2023-04-15T13:19:02;36.42;;;21.77;;
58926;SDS011;44712;52.530;9.760;2023-04-15T13:21:29;36.22;;;19.98;;
58926;SDS011;44712;52.530;9.760;2023-04-15T13:24:03;32.47;;;19.65;;
58926;SDS011;44712;52.530;9.760;2023-04-15T13:26:30;33.38;;;19.98;;
58926;SDS011;44712;52.530;9.760;2023-04-15T13:28:59;35.05;;;20.67;;
58926;SDS011;44712;52.530;9.760;2023-04-15T13:31:26;36.15;;;20.55;;
58926;SDS011;44712;52.530;9.760;2023-04-15T13:33:53;35.08;;;20.35;;
58926;SDS011;44712;52.530;9.760;2023-04-15T13:36:20;30.70;;;19.35;;
58926;SDS011;44712;52.530;9.760;2023-04-15T13:38:47;32.72;;;19.00;;
58926;SDS011;44712;52.530;9.760;2023-04-15T13:41:17;31.05;;;17.85;;
58926;SDS011;44712;52.530;9.760;2023-04-15T13:43:44;28.52;;;17.77;;
58926;SDS011;44712;52.530;9.760;2023-04-15T13:46:13;26.52;;;16.15;;
58926;SDS011;44712;52.530;9.760;2023-04-15T13:48:40;25.15;;;17.52;;
58926;SDS011;44712;52.530;9.760;2023-04-15T13:51:07;26.50;;;17.15;;
58926;SDS011;44712;52.530;9.760;2023-04-15T13:53:34;26.85;;;17.48;;
58926;SDS011;44712;52.530;9.760;2023-04-15T13:56:08;23.13;;;16.67;;
58926;SDS011;44712;52.530;9.760;2023-04-15T13:58:35;23.70;;;15.52;;
58926;SDS011;44712;52.530;9.760;2023-04-15T14:01:03;22.00;;;15.45;;
58926;SDS011;44712;52.530;9.760;2023-04-15T14:03:36;23.13;;;15.40;;
58926;SDS011;44712;52.530;9.760;2023-04-15T14:06:05;22.55;;;14.82;;
58926;SDS011;44712;52.530;9.760;2023-04-15T14:08:32;23.92;;;14.90;;
58926;SDS011;44712;52.530;9.760;2023-04-15T14:11:01;20.00;;;14.40;;
58926;SDS011;44712;52.530;9.760;2023-04-15T14:13:28;19.83;;;14.30;;
58926;SDS011;44712;52.530;9.760;2023-04-15T14:15:55;17.30;;;12.65;;
58926;SDS011;44712;52.530;9.760;2023-04-15T14:18:22;15.98;;;12.15;;
58926;SDS011;44712;52.530;9.760;2023-04-15T14:20:49;16.05;;;11.90;;
58926;SDS011;44712;52.530;9.760;2023-04-15T14:23:16;16.27;;;12.50;;
58926;SDS011;44712;52.530;9.760;2023-04-15T14:25:43;15.35;;;11.45;;
58926;SDS011;44712;52.530;9.760;2023-04-15T14:28:13;15.75;;;12.13;;
58926;SDS011;44712;52.530;9.760;2023-04-15T14:30:40;18.20;;;13.15;;
58926;SDS011;44712;52.530;9.760;2023-04-15T14:33:07;15.32;;;12.05;;
58926;SDS011;44712;52.530;9.760;2023-04-15T14:35:34;17.17;;;12.15;;
58926;SDS011;44712;52.530;9.760;2023-04-15T14:38:01;17.75;;;13.07;;
58926;SDS011;44712;52.530;9.760;2023-04-15T14:40:28;16.95;;;12.13;;
58926;SDS011;44712;52.530;9.760;2023-04-15T14:42:57;16.60;;;12.32;;
58926;SDS011;44712;52.530;9.760;2023-04-15T14:45:24;15.13;;;12.70;;
58926;SDS011;44712;52.530;9.760;2023-04-15T14:47:50;16.35;;;12.30;;
58926;SDS011;44712;52.530;9.760;2023-04-15T14:50:18;16.20;;;13.20;;
58926;SDS011;44712;52.530;9.760;2023-04-15T14:52:45;20.33;;;14.15;;
58926;SDS011;44712;52.530;9.760;2023-04-15T14:55:12;16.95;;;13.05;;
58926;SDS011;44712;52.530;9.760;2023-04-15T14:57:40;17.80;;;12.75;;
58926;SDS011;44712;52.530;9.760;2023-04-15T15:00:08;18.27;;;13.43;;
58926;SDS011;44712;52.530;9.760;2023-04-15T15:05:14;19.65;;;13.35;;
58926;SDS011;44712;52.530;9.760;2023-04-15T15:07:42;18.67;;;13.68;;
58926;SDS011;44712;52.530;9.760;2023-04-15T15:10:10;20.88;;;15.60;;